createdAt,value
2023-06-30T00:01:40.980Z,20.32
2023-06-30T00:04:09.234Z,20.46
2023-06-30T00:06:37.425Z,20.55
2023-06-30T00:09:05.426Z,20.59
2023-06-30T00:11:33.347Z,20.63
2023-06-30T00:14:01.476Z,20.66
2023-06-30T00:16:29.549Z,20.74
2023-06-30T00:18:57.961Z,20.82
2023-06-30T00:21:26.007Z,20.86
2023-06-30T00:23:54.064Z,20.92
2023-06-30T00:26:22.062Z,20.97
2023-06-30T00:28:50.012Z,21.02
2023-06-30T00:31:17.992Z,21.04
2023-06-30T00:33:48.094Z,21.06
2023-06-30T00:36:18.040Z,20.93
2023-06-30T00:38:46.139Z,20.27
2023-06-30T00:41:15.615Z,19.55
2023-06-30T00:43:44.242Z,18.94
2023-06-30T00:46:14.908Z,18.46
2023-06-30T00:48:43.153Z,18.00
2023-06-30T00:51:14.134Z,17.64
2023-06-30T00:53:42.269Z,17.69
2023-06-30T00:56:10.361Z,18.34
2023-06-30T00:58:38.834Z,18.90
2023-06-30T01:01:17.195Z,19.30
2023-06-30T01:03:57.135Z,19.51
2023-06-30T01:06:40.388Z,19.65
2023-06-30T01:09:15.665Z,19.77
2023-06-30T01:11:43.823Z,19.93
2023-06-30T01:14:12.725Z,20.02
2023-06-30T01:16:41.778Z,20.06
2023-06-30T01:19:23.161Z,20.08
2023-06-30T01:21:51.426Z,20.09
2023-06-30T01:24:19.374Z,20.15
2023-06-30T01:26:50.906Z,20.22
2023-06-30T01:29:19.219Z,20.32
2023-06-30T01:31:47.413Z,20.35
2023-06-30T01:34:15.508Z,20.36
2023-06-30T01:36:43.476Z,20.03
2023-06-30T01:39:11.564Z,19.15
2023-06-30T01:41:40.454Z,18.40
2023-06-30T01:44:08.530Z,17.86
2023-06-30T01:46:36.562Z,17.46
2023-06-30T01:49:04.599Z,17.12
2023-06-30T01:51:32.672Z,16.81
2023-06-30T01:54:00.615Z,16.79
2023-06-30T01:56:28.771Z,17.43
2023-06-30T01:58:56.777Z,18.03
2023-06-30T02:01:24.884Z,18.43
2023-06-30T02:03:53.477Z,18.67
2023-06-30T02:06:21.700Z,18.82
2023-06-30T02:08:49.754Z,18.96
2023-06-30T02:11:17.919Z,19.12
2023-06-30T02:13:45.996Z,19.27
2023-06-30T02:16:13.931Z,19.40
2023-06-30T02:18:42.151Z,19.45
2023-06-30T02:21:10.104Z,19.50
2023-06-30T02:23:38.080Z,19.55
2023-06-30T02:26:06.149Z,19.59
2023-06-30T02:28:34.206Z,19.63
2023-06-30T02:31:02.184Z,19.63
2023-06-30T02:33:30.282Z,19.16
2023-06-30T02:35:59.189Z,18.36
2023-06-30T02:38:27.554Z,17.70
2023-06-30T02:40:56.841Z,17.18
2023-06-30T02:43:24.754Z,16.75
2023-06-30T02:45:52.870Z,16.41
2023-06-30T02:48:21.238Z,16.10
2023-06-30T02:50:49.733Z,16.00
2023-06-30T02:53:18.079Z,16.63
2023-06-30T02:55:46.901Z,17.32
2023-06-30T02:58:15.718Z,17.82
2023-06-30T03:00:43.912Z,18.19
2023-06-30T03:03:12.661Z,18.48
2023-06-30T03:05:42.070Z,18.70
2023-06-30T03:08:11.116Z,18.87
2023-06-30T03:10:40.618Z,19.14
2023-06-30T03:13:08.647Z,19.34
2023-06-30T03:15:36.761Z,19.60
2023-06-30T03:18:05.330Z,19.89
2023-06-30T03:20:33.714Z,20.20
2023-06-30T03:23:01.792Z,19.95
2023-06-30T03:25:29.849Z,19.21
2023-06-30T03:27:58.238Z,18.63
2023-06-30T03:30:26.312Z,18.23
2023-06-30T03:32:54.462Z,18.02
2023-06-30T03:35:23.911Z,17.99
2023-06-30T03:37:53.489Z,18.06
2023-06-30T03:40:21.766Z,17.98
2023-06-30T03:42:49.697Z,17.89
2023-06-30T03:45:17.730Z,18.33
2023-06-30T03:47:45.767Z,19.28
2023-06-30T03:50:14.048Z,20.16
2023-06-30T03:52:42.145Z,20.86
2023-06-30T03:55:10.116Z,20.87
2023-06-30T03:57:38.119Z,20.58
2023-06-30T04:00:08.766Z,20.38
2023-06-30T04:02:41.360Z,20.47
2023-06-30T04:05:09.835Z,20.78
2023-06-30T04:07:39.036Z,21.14
2023-06-30T04:10:07.971Z,21.56
2023-06-30T04:12:36.102Z,22.38
2023-06-30T04:15:05.563Z,23.60
2023-06-30T04:17:33.546Z,24.06
2023-06-30T04:20:01.890Z,24.08
2023-06-30T04:22:29.961Z,24.13
2023-06-30T04:24:58.108Z,24.35
2023-06-30T04:27:26.193Z,24.75
2023-06-30T04:29:54.092Z,25.33
2023-06-30T04:32:22.189Z,25.98
2023-06-30T04:34:50.646Z,26.61
2023-06-30T04:37:18.695Z,27.23
2023-06-30T04:39:49.096Z,27.90
2023-06-30T04:42:17.467Z,28.63
2023-06-30T04:44:45.744Z,29.36
2023-06-30T04:47:13.870Z,30.00
2023-06-30T04:49:42.080Z,30.42
2023-06-30T04:52:10.093Z,30.59
2023-06-30T04:54:39.110Z,30.69
2023-06-30T04:57:07.325Z,30.83
2023-06-30T04:59:35.421Z,30.96
2023-06-30T05:02:04.024Z,31.12
2023-06-30T05:04:33.122Z,31.50
2023-06-30T05:07:01.066Z,31.88
2023-06-30T05:09:29.835Z,32.36
2023-06-30T05:11:57.822Z,32.82
2023-06-30T05:14:25.799Z,32.99
2023-06-30T05:16:55.890Z,32.94
2023-06-30T05:19:25.586Z,32.92
2023-06-30T05:21:54.077Z,33.01
2023-06-30T05:24:22.049Z,32.92
2023-06-30T05:26:50.921Z,32.96
2023-06-30T05:29:18.877Z,33.09
2023-06-30T05:31:47.129Z,33.40
2023-06-30T05:34:17.223Z,33.98
2023-06-30T05:36:45.817Z,34.28
2023-06-30T05:39:15.423Z,34.38
2023-06-30T05:41:43.595Z,34.53
2023-06-30T05:44:11.788Z,34.88
2023-06-30T05:46:40.285Z,35.06
2023-06-30T05:49:08.498Z,35.09
2023-06-30T05:51:37.162Z,35.18
2023-06-30T05:54:05.449Z,35.23
2023-06-30T05:56:33.369Z,35.39
2023-06-30T05:59:01.574Z,35.46
2023-06-30T06:01:29.547Z,35.61
2023-06-30T06:03:59.131Z,35.77
2023-06-30T06:06:27.533Z,35.84
2023-06-30T06:08:55.603Z,35.76
2023-06-30T06:11:23.552Z,35.49
2023-06-30T06:13:51.518Z,35.55
2023-06-30T06:16:20.004Z,35.50
2023-06-30T06:18:49.249Z,35.72
2023-06-30T06:21:20.185Z,35.77
2023-06-30T06:23:48.243Z,35.67
2023-06-30T06:26:18.017Z,35.72
2023-06-30T06:28:45.903Z,35.79
2023-06-30T06:31:13.972Z,35.89
2023-06-30T06:33:42.803Z,36.23
2023-06-30T06:36:11.548Z,36.71
2023-06-30T06:38:39.638Z,36.80
2023-06-30T06:41:07.751Z,36.73
2023-06-30T06:43:35.978Z,36.85
2023-06-30T06:46:03.966Z,36.87
2023-06-30T06:48:32.011Z,36.80
2023-06-30T06:51:02.269Z,36.79
2023-06-30T06:53:34.835Z,36.95
2023-06-30T06:56:04.639Z,37.16
2023-06-30T06:58:36.661Z,37.45
2023-06-30T07:01:05.218Z,36.98
2023-06-30T07:03:35.749Z,36.57
2023-06-30T07:06:04.375Z,36.66
2023-06-30T07:08:36.255Z,36.89
2023-06-30T07:11:05.357Z,37.12
2023-06-30T07:13:33.530Z,37.41
2023-06-30T07:16:02.024Z,37.29
2023-06-30T07:18:31.282Z,37.20
2023-06-30T07:20:59.478Z,37.09
2023-06-30T07:23:27.827Z,36.86
2023-06-30T07:25:55.999Z,36.78
2023-06-30T07:28:24.079Z,36.61
2023-06-30T07:30:52.484Z,36.59
2023-06-30T07:33:21.237Z,36.61
2023-06-30T07:35:49.587Z,35.99
2023-06-30T07:38:17.753Z,35.19
2023-06-30T07:40:55.795Z,34.69
2023-06-30T07:43:25.171Z,34.21
2023-06-30T07:45:53.186Z,33.58
2023-06-30T07:48:21.525Z,33.06
2023-06-30T07:51:03.266Z,32.92
2023-06-30T07:53:37.027Z,32.72
2023-06-30T07:56:05.491Z,32.18
2023-06-30T07:58:33.689Z,31.87
2023-06-30T08:01:02.113Z,32.33
2023-06-30T08:03:30.494Z,32.67
2023-06-30T08:06:00.900Z,32.19
2023-06-30T08:08:32.680Z,31.32
2023-06-30T08:11:00.840Z,30.33
2023-06-30T08:13:29.068Z,29.62
2023-06-30T08:15:57.372Z,29.09
2023-06-30T08:18:32.214Z,28.67
2023-06-30T08:21:03.751Z,29.04
2023-06-30T08:23:32.011Z,29.89
2023-06-30T08:26:00.035Z,30.82
2023-06-30T08:28:28.177Z,31.13
2023-06-30T08:30:56.830Z,30.77
2023-06-30T08:36:02.502Z,29.31
2023-06-30T08:38:30.806Z,28.71
2023-06-30T08:40:59.511Z,28.31
2023-06-30T08:43:29.187Z,28.39
2023-06-30T08:45:57.214Z,28.96
2023-06-30T08:48:25.195Z,29.92
2023-06-30T08:50:53.832Z,30.66
2023-06-30T08:53:25.038Z,30.74
2023-06-30T08:55:52.997Z,30.30
2023-06-30T08:58:25.231Z,30.02
2023-06-30T09:00:55.655Z,29.88
2023-06-30T09:03:24.150Z,29.93
2023-06-30T09:05:55.800Z,30.08
2023-06-30T09:08:25.170Z,29.82
2023-06-30T09:10:53.261Z,29.35
2023-06-30T09:13:23.996Z,29.01
2023-06-30T09:15:52.779Z,28.64
2023-06-30T09:18:20.710Z,28.32
2023-06-30T09:20:48.657Z,28.17
2023-06-30T09:23:17.608Z,28.28
2023-06-30T09:25:46.744Z,28.61
2023-06-30T09:28:15.987Z,28.95
2023-06-30T09:30:46.962Z,29.36
2023-06-30T09:33:16.780Z,29.38
2023-06-30T09:35:47.603Z,29.42
2023-06-30T09:38:18.515Z,29.41
2023-06-30T09:40:48.571Z,29.39
2023-06-30T09:43:21.880Z,29.36
2023-06-30T09:46:01.233Z,29.18
2023-06-30T09:48:37.002Z,29.19
2023-06-30T09:51:08.286Z,29.22
2023-06-30T09:53:37.946Z,29.21
2023-06-30T09:56:07.032Z,29.45
2023-06-30T09:58:37.360Z,29.79
2023-06-30T10:01:05.553Z,29.94
2023-06-30T10:03:33.942Z,30.10
2023-06-30T10:06:02.123Z,30.19
2023-06-30T10:08:30.064Z,30.28
2023-06-30T10:10:58.313Z,30.42
2023-06-30T10:13:27.001Z,30.62
2023-06-30T10:15:55.129Z,30.87
2023-06-30T10:18:23.600Z,31.05
2023-06-30T10:20:51.659Z,31.09
2023-06-30T10:23:21.042Z,30.89
2023-06-30T10:25:50.398Z,30.68
2023-06-30T10:28:19.482Z,30.64
2023-06-30T10:30:50.739Z,30.62
2023-06-30T10:33:18.934Z,30.55
2023-06-30T10:35:47.467Z,30.28
2023-06-30T10:38:16.489Z,29.98
2023-06-30T10:40:45.201Z,29.80
2023-06-30T10:43:14.992Z,29.77
2023-06-30T10:46:15.153Z,29.78
2023-06-30T10:48:43.069Z,29.87
2023-06-30T10:51:12.698Z,30.12
2023-06-30T10:53:44.149Z,30.26
2023-06-30T10:56:12.057Z,30.45
2023-06-30T10:58:44.164Z,30.65
2023-06-30T11:01:12.243Z,30.68
2023-06-30T11:04:09.827Z,30.53
2023-06-30T11:06:37.918Z,30.30
2023-06-30T11:09:13.105Z,30.23
2023-06-30T11:11:51.868Z,30.13
2023-06-30T11:15:01.682Z,29.74
2023-06-30T11:17:55.680Z,29.46
2023-06-30T11:20:27.401Z,29.52
2023-06-30T11:23:06.810Z,29.63
2023-06-30T11:25:35.338Z,29.73
2023-06-30T11:28:05.918Z,29.90
2023-06-30T11:30:38.349Z,30.03
2023-06-30T11:33:07.737Z,29.97
2023-06-30T11:35:36.812Z,29.97
2023-06-30T11:38:05.111Z,29.94
2023-06-30T11:40:33.023Z,30.02
2023-06-30T11:43:04.117Z,30.14
2023-06-30T11:45:32.165Z,30.05
2023-06-30T11:48:00.258Z,30.05
2023-06-30T11:50:29.253Z,30.20
2023-06-30T11:52:57.246Z,30.30
2023-06-30T11:55:27.747Z,30.27
2023-06-30T11:57:56.232Z,30.24
2023-06-30T12:00:24.988Z,30.23
2023-06-30T12:02:59.580Z,30.28
2023-06-30T12:05:28.376Z,30.35
2023-06-30T12:07:57.549Z,30.20
2023-06-30T12:10:39.239Z,29.89
2023-06-30T12:13:09.521Z,29.52
2023-06-30T12:15:38.593Z,29.29
2023-06-30T12:18:07.054Z,29.17
2023-06-30T12:20:50.568Z,29.29
2023-06-30T12:23:18.566Z,29.58
2023-06-30T12:25:47.927Z,29.62
2023-06-30T12:28:15.914Z,29.74
2023-06-30T12:30:45.548Z,29.95
2023-06-30T12:33:20.691Z,30.23
2023-06-30T12:35:50.803Z,30.44
2023-06-30T12:38:19.708Z,30.58
2023-06-30T12:40:47.881Z,30.73
2023-06-30T12:43:17.646Z,30.99
2023-06-30T12:45:45.661Z,31.26
2023-06-30T12:48:13.875Z,31.21
2023-06-30T12:50:42.206Z,30.83
2023-06-30T12:53:10.243Z,30.48
2023-06-30T12:55:38.482Z,30.25
2023-06-30T12:58:06.380Z,30.13
2023-06-30T13:00:34.345Z,30.03
2023-06-30T13:03:02.450Z,29.94
2023-06-30T13:05:30.787Z,29.91
2023-06-30T13:07:58.774Z,30.02
2023-06-30T13:10:29.011Z,30.26
2023-06-30T13:12:59.662Z,30.47
2023-06-30T13:15:30.734Z,30.44
2023-06-30T13:17:59.148Z,30.23
2023-06-30T13:20:27.436Z,30.20
2023-06-30T13:23:10.089Z,30.27
2023-06-30T13:27:17.532Z,30.41
2023-06-30T13:29:49.642Z,30.64
2023-06-30T13:32:17.894Z,30.55
2023-06-30T13:34:46.741Z,30.55
2023-06-30T13:37:15.298Z,30.45
2023-06-30T13:39:43.312Z,30.56
2023-06-30T13:42:11.405Z,30.69
2023-06-30T13:44:39.278Z,30.75
2023-06-30T13:47:07.381Z,30.59
2023-06-30T13:49:35.489Z,30.38
2023-06-30T13:52:03.826Z,30.13
2023-06-30T13:54:32.209Z,29.97
2023-06-30T13:57:00.406Z,29.98
2023-06-30T13:59:28.377Z,30.01
2023-06-30T14:01:56.493Z,30.07
2023-06-30T14:04:24.446Z,30.14
2023-06-30T14:06:52.497Z,29.98
2023-06-30T14:09:20.491Z,29.76
2023-06-30T14:11:48.462Z,29.53
2023-06-30T14:14:16.617Z,29.37
2023-06-30T14:16:44.754Z,29.20
2023-06-30T14:19:13.087Z,29.07
2023-06-30T14:21:41.184Z,29.27
2023-06-30T14:24:09.796Z,29.61
2023-06-30T14:26:37.878Z,29.94
2023-06-30T14:29:05.909Z,30.16
2023-06-30T14:31:33.982Z,30.21
2023-06-30T14:34:02.036Z,30.09
2023-06-30T14:36:30.062Z,30.05
2023-06-30T14:38:58.003Z,29.97
2023-06-30T14:41:26.094Z,29.93
2023-06-30T14:43:54.747Z,29.97
2023-06-30T14:46:22.790Z,30.06
2023-06-30T14:48:50.764Z,30.19
2023-06-30T14:51:18.739Z,30.35
2023-06-30T14:53:46.763Z,30.29
2023-06-30T14:56:14.826Z,30.20
2023-06-30T14:58:44.830Z,30.22
2023-06-30T15:01:12.911Z,30.12
2023-06-30T15:03:40.987Z,29.91
2023-06-30T15:06:10.012Z,29.68
2023-06-30T15:08:38.865Z,29.62
2023-06-30T15:11:06.814Z,29.75
2023-06-30T15:13:36.629Z,29.92
2023-06-30T15:16:06.782Z,30.16
2023-06-30T15:18:34.777Z,30.39
2023-06-30T15:21:02.839Z,30.49
2023-06-30T15:23:30.885Z,30.39
2023-06-30T15:25:58.991Z,30.17
2023-06-30T15:28:27.032Z,29.91
2023-06-30T15:30:55.009Z,29.58
2023-06-30T15:33:23.168Z,29.29
2023-06-30T15:35:51.230Z,29.01
2023-06-30T15:38:19.201Z,28.77
2023-06-30T15:40:48.141Z,28.61
2023-06-30T15:43:16.933Z,28.58
2023-06-30T15:45:48.005Z,28.69
2023-06-30T15:48:16.429Z,28.88
2023-06-30T15:50:47.495Z,28.92
2023-06-30T15:53:15.552Z,28.84
2023-06-30T15:55:43.950Z,28.69
2023-06-30T15:58:12.373Z,28.54
2023-06-30T16:00:40.669Z,28.35
2023-06-30T16:03:08.774Z,28.14
2023-06-30T16:05:37.235Z,27.92
2023-06-30T16:08:05.930Z,27.73
2023-06-30T16:10:33.794Z,27.57
2023-06-30T16:13:06.340Z,27.42
2023-06-30T16:15:36.360Z,27.27
2023-06-30T16:18:04.338Z,27.09
2023-06-30T16:20:32.590Z,26.92
2023-06-30T16:23:00.472Z,26.76
2023-06-30T16:25:28.493Z,26.57
2023-06-30T16:27:56.695Z,26.40
2023-06-30T16:30:31.347Z,26.20
2023-06-30T16:33:00.195Z,25.98
2023-06-30T16:35:28.511Z,25.80
2023-06-30T16:38:00.202Z,25.66
2023-06-30T16:40:28.348Z,25.55
2023-06-30T16:42:56.450Z,25.46
2023-06-30T16:45:25.824Z,25.41
2023-06-30T16:47:54.569Z,25.36
2023-06-30T16:50:22.884Z,25.34
2023-06-30T16:52:50.932Z,25.31
2023-06-30T16:55:18.799Z,25.30
2023-06-30T16:57:48.498Z,25.30
2023-06-30T17:00:17.589Z,25.28
2023-06-30T17:02:48.492Z,25.28
2023-06-30T17:05:16.906Z,25.31
2023-06-30T17:07:45.089Z,25.33
2023-06-30T17:10:13.627Z,25.33
2023-06-30T17:12:41.686Z,25.32
2023-06-30T17:15:10.552Z,25.29
2023-06-30T17:17:38.697Z,25.28
2023-06-30T17:20:07.983Z,25.30
2023-06-30T17:22:36.099Z,25.31
2023-06-30T17:25:05.789Z,25.30
2023-06-30T17:27:34.296Z,25.28
2023-06-30T17:30:03.042Z,25.25
2023-06-30T17:32:31.161Z,25.20
2023-06-30T17:34:59.248Z,25.12
2023-06-30T17:37:27.296Z,25.04
2023-06-30T17:39:55.311Z,24.95
2023-06-30T17:42:23.418Z,24.86
2023-06-30T17:44:51.476Z,24.74
2023-06-30T17:47:19.503Z,24.64
2023-06-30T17:49:48.364Z,24.54
2023-06-30T17:52:16.548Z,24.46
2023-06-30T17:54:45.764Z,24.38
2023-06-30T17:57:14.530Z,24.29
2023-06-30T17:59:42.546Z,24.19
2023-06-30T18:02:10.495Z,24.08
2023-06-30T18:04:38.636Z,23.91
2023-06-30T18:07:13.560Z,23.74
2023-06-30T18:09:43.882Z,23.61
2023-06-30T18:12:12.300Z,23.52
2023-06-30T18:14:42.013Z,23.45
2023-06-30T18:17:10.028Z,23.39
2023-06-30T18:19:40.389Z,23.34
2023-06-30T18:22:09.066Z,23.30
2023-06-30T18:24:37.049Z,23.25
2023-06-30T18:27:05.514Z,23.20
2023-06-30T18:29:33.472Z,23.17
2023-06-30T18:32:01.563Z,23.14
2023-06-30T18:34:31.163Z,23.11
2023-06-30T18:36:59.248Z,23.07
2023-06-30T18:39:27.247Z,23.03
2023-06-30T18:41:56.044Z,22.97
2023-06-30T18:44:26.166Z,22.93
2023-06-30T18:46:54.335Z,22.87
2023-06-30T18:49:25.726Z,22.83
2023-06-30T18:51:55.246Z,22.78
2023-06-30T18:54:23.934Z,22.74
2023-06-30T18:56:51.941Z,22.70
2023-06-30T18:59:19.866Z,22.66
2023-06-30T19:01:48.089Z,22.61
2023-06-30T19:04:16.864Z,22.55
2023-06-30T19:06:45.137Z,22.50
2023-06-30T19:09:14.029Z,22.46
2023-06-30T19:11:42.553Z,22.43
2023-06-30T19:14:10.478Z,22.40
2023-06-30T19:16:38.466Z,22.37
2023-06-30T19:19:06.567Z,22.32
2023-06-30T19:21:34.807Z,22.28
2023-06-30T19:24:03.134Z,22.23
2023-06-30T19:26:31.271Z,22.19
2023-06-30T19:28:59.330Z,22.15
2023-06-30T19:31:27.529Z,22.11
2023-06-30T19:33:56.069Z,22.08
2023-06-30T19:36:26.400Z,22.05
2023-06-30T19:38:54.619Z,22.02
2023-06-30T19:41:24.865Z,21.99
2023-06-30T19:43:52.874Z,21.97
2023-06-30T19:46:21.004Z,21.94
2023-06-30T19:48:49.046Z,21.92
2023-06-30T19:51:17.097Z,21.89
2023-06-30T19:53:45.047Z,21.85
2023-06-30T19:56:14.983Z,21.83
2023-06-30T19:58:43.578Z,21.81
2023-06-30T20:01:12.320Z,21.80
2023-06-30T20:03:40.516Z,21.76
2023-06-30T20:06:08.759Z,21.70
2023-06-30T20:08:37.519Z,21.64
2023-06-30T20:11:05.600Z,21.59
2023-06-30T20:13:33.571Z,21.55
2023-06-30T20:16:03.022Z,21.52
2023-06-30T20:18:31.124Z,21.50
2023-06-30T20:20:59.395Z,21.46
2023-06-30T20:23:27.505Z,21.42
2023-06-30T20:25:55.604Z,21.37
2023-06-30T20:28:23.543Z,21.33
2023-06-30T20:30:51.933Z,21.30
2023-06-30T20:33:20.174Z,21.27
2023-06-30T20:35:48.261Z,21.24
2023-06-30T20:38:19.176Z,21.21
2023-06-30T20:40:47.775Z,21.18
2023-06-30T20:43:16.135Z,21.16
2023-06-30T20:45:44.342Z,21.11
2023-06-30T20:48:12.459Z,21.06
2023-06-30T20:50:41.452Z,21.00
2023-06-30T20:53:09.430Z,20.94
2023-06-30T20:55:37.402Z,20.90
2023-06-30T20:58:05.476Z,20.86
2023-06-30T21:00:33.569Z,20.81
2023-06-30T21:03:01.852Z,20.77
2023-06-30T21:05:30.501Z,20.72
2023-06-30T21:07:58.410Z,20.69
2023-06-30T21:10:27.478Z,20.63
2023-06-30T21:13:00.737Z,20.60
2023-06-30T21:15:29.752Z,20.54
2023-06-30T21:17:57.819Z,20.49
2023-06-30T21:20:26.097Z,20.44
2023-06-30T21:22:54.192Z,20.41
2023-06-30T21:25:22.448Z,20.37
2023-06-30T21:27:50.505Z,20.35
2023-06-30T21:30:19.223Z,20.36
2023-06-30T21:32:47.859Z,20.93
2023-06-30T21:35:15.908Z,21.77
2023-06-30T21:37:43.879Z,22.38
2023-06-30T21:40:12.087Z,22.81
2023-06-30T21:42:39.994Z,23.13
2023-06-30T21:45:08.701Z,23.38
2023-06-30T21:47:36.853Z,23.63
2023-06-30T21:50:05.590Z,23.84
2023-06-30T21:52:33.672Z,24.02
2023-06-30T21:55:03.980Z,24.18
2023-06-30T21:57:34.353Z,24.33
2023-06-30T22:00:04.068Z,24.45
2023-06-30T22:02:34.527Z,24.55
2023-06-30T22:05:02.918Z,24.65
2023-06-30T22:07:31.393Z,24.53
2023-06-30T22:09:59.880Z,23.90
2023-06-30T22:12:28.063Z,23.26
2023-06-30T22:14:56.175Z,22.75
2023-06-30T22:17:24.150Z,22.31
2023-06-30T22:19:52.307Z,21.94
2023-06-30T22:22:20.253Z,21.66
2023-06-30T22:24:48.266Z,21.41
2023-06-30T22:27:16.187Z,21.22
2023-06-30T22:29:44.248Z,21.05
2023-06-30T22:32:13.355Z,20.89
2023-06-30T22:34:41.841Z,20.74
2023-06-30T22:37:09.939Z,20.62
2023-06-30T22:39:37.906Z,20.53
2023-06-30T22:42:06.724Z,20.45
2023-06-30T22:44:34.632Z,20.37
2023-06-30T22:47:02.645Z,20.29
2023-06-30T22:49:30.607Z,20.22
2023-06-30T22:51:58.624Z,20.16
2023-06-30T22:54:26.614Z,20.11
2023-06-30T22:56:54.564Z,20.33
2023-06-30T22:59:23.287Z,21.13
2023-06-30T23:01:51.364Z,21.81
2023-06-30T23:04:19.495Z,22.28
2023-06-30T23:06:47.611Z,22.61
2023-06-30T23:09:15.628Z,22.88
2023-06-30T23:11:43.640Z,23.11
2023-06-30T23:14:12.180Z,23.29
2023-06-30T23:16:40.100Z,23.46
2023-06-30T23:19:08.565Z,23.62
2023-06-30T23:21:38.046Z,23.80
2023-06-30T23:24:12.960Z,23.96
2023-06-30T23:26:41.752Z,24.09
2023-06-30T23:29:10.132Z,24.21
2023-06-30T23:31:40.509Z,24.29
2023-06-30T23:34:08.980Z,24.34
2023-06-30T23:36:37.550Z,24.33
2023-06-30T23:39:05.799Z,24.33
2023-06-30T23:41:33.915Z,24.39
2023-06-30T23:44:02.079Z,24.41
2023-06-30T23:46:31.861Z,24.46
2023-06-30T23:49:00.170Z,24.52
2023-06-30T23:51:28.169Z,24.59
2023-06-30T23:53:56.194Z,24.58
2023-06-30T23:56:24.140Z,24.00
2023-06-30T23:58:52.084Z,23.24
